Latest Weather Observations for Shark Bay Airport

IDW60801

Issued at 1:32 pm WST Tuesday 26 May 2015 (issued every 30 minutes, with the page automatically refreshed every 10 minutes)

About weather observations | Map of weather stations | Latest weather observations for WA | Other Formats
Station Details ID: 006105 Name: SHARK BAY AIRPORT Lat: -25.89 Lon: 113.58 Height: 33.8 m
Data from the previous 72 hours. | See also: Recent months for locations in Western Australia
Date/Time
WST
Temp
°C
App
Temp
°C
Dew
Point
Rel
Hum
%
Delta-T
°C
Wind Press
QNH
hPa
Press
MSL
hPa
Rain
since 9 am
mm
Dir
 
Spd
km/h
Gust
km/h
Spd
kts
Gust
kts
26/01:30pm 24.9 21.3 10.0 39 8.2 SE 19 26 10 14 1018.6 1018.5 0.0
26/01:00pm 24.8 21.9 9.5 38 8.3 SSE 15 20 8 11 1018.9 1018.8 0.0
26/12:30pm 24.3 21.2 10.2 41 7.8 SSE 17 24 9 13 1019.4 1019.3 0.0
26/12:00pm 23.9 21.1 11.2 44 7.1 SE 17 24 9 13 1019.8 1019.7 0.0
26/11:30am 22.7 19.7 10.5 46 6.7 SSE 17 22 9 12 1020.3 1020.2 0.0
26/11:00am 22.2 19.1 10.4 47 6.4 SE 17 20 9 11 1020.6 1020.5 0.0
26/10:30am 21.4 18.3 10.3 49 6.0 SE 17 26 9 14 1020.9 1020.8 0.0
26/10:00am 20.5 17.2 10.9 54 5.2 SE 19 24 10 13 1021.0 1020.9 0.0
26/09:30am 19.4 15.7 10.1 55 5.0 SE 20 26 11 14 1021.1 1021.0 0.0
26/09:00am 18.4 14.5 9.5 56 4.7 SE 20 26 11 14 1021.0 1020.9 0.0
26/08:30am 17.9 14.2 9.5 58 4.4 SE 19 26 10 14 1020.9 1020.8 0.0
26/08:00am 16.9 14.2 10.5 66 3.4 SE 15 20 8 11 1020.5 1020.4 0.0
26/07:30am 15.3 12.6 10.5 73 2.5 SE 15 20 8 11 1020.4 1020.3 0.0
26/07:00am 14.8 11.6 10.0 73 2.5 SSE 17 20 9 11 1020.1 1020.0 0.0
26/06:30am 15.0 11.8 10.0 72 2.6 SSE 17 24 9 13 1019.9 1019.8 0.0
26/06:00am 15.0 11.6 10.4 74 2.4 SSE 19 26 10 14 1019.6 1019.5 0.0
26/05:30am 15.6 12.0 10.6 72 2.6 SSE 20 30 11 16 1019.4 1019.3 0.0
26/05:00am 15.4 11.9 11.0 75 2.3 SSE 20 28 11 15 1019.3 1019.2 0.0
26/04:30am 15.4 11.9 10.8 74 2.4 SSE 20 26 11 14 1019.3 1019.2 0.0
26/04:00am 15.7 12.3 10.7 72 2.6 SSE 19 22 10 12 1019.4 1019.3 0.0
26/03:30am 16.2 12.6 10.5 69 3.0 SSE 20 28 11 15 1019.2 1019.1 0.0
26/03:00am 16.4 12.7 10.3 67 3.2 SSE 20 28 11 15 1019.2 1019.1 0.0
26/02:30am 16.9 13.2 10.1 64 3.6 SSE 20 28 11 15 1019.3 1019.2 0.0
26/02:00am 17.3 13.6 10.2 63 3.8 SSE 20 30 11 16 1019.4 1019.3 0.0
26/01:30am 17.6 13.5 10.0 61 4.0 SSE 22 30 12 16 1019.2 1019.1 0.0
26/01:00am 17.8 14.1 10.2 61 4.0 SSE 20 26 11 14 1019.3 1019.2 0.0
26/12:30am 18.1 14.4 10.0 59 4.3 SSE 20 28 11 15 1019.2 1019.1 0.0
26/12:00am 18.4 14.5 10.7 61 4.1 SSE 22 33 12 18 1019.4 1019.3 0.0
 
Date/Time
WST
Temp
°C
App
Temp
°C
Dew
Point
Rel
Hum
%
Delta-T
°C
Wind Press
QNH
hPa
Press
MSL
hPa
Rain
since 9 am
mm
Dir
 
Spd
km/h
Gust
km/h
Spd
kts
Gust
kts
25/11:30pm 18.5 14.8 12.7 69 3.2 SSE 24 32 13 17 1019.4 1019.3 0.0
25/11:00pm 18.7 15.3 12.5 67 3.5 SSE 22 32 12 17 1019.4 1019.3 0.0
25/10:30pm 19.0 15.2 12.5 66 3.6 SSE 24 32 13 17 1019.4 1019.3 0.0
25/10:00pm 19.2 16.2 12.5 65 3.7 SSE 20 30 11 16 1019.5 1019.4 0.0
25/09:30pm 19.4 16.5 12.9 66 3.7 S 20 32 11 17 1019.5 1019.4 0.0
25/09:00pm 19.4 16.6 13.1 67 3.6 S 20 26 11 14 1019.4 1019.3 0.0
25/08:30pm 19.2 16.6 13.2 68 3.4 S 19 24 10 13 1019.5 1019.4 0.0
25/08:00pm 19.6 17.0 13.3 67 3.6 S 19 26 10 14 1019.5 1019.4 0.0
25/07:30pm 19.6 16.9 12.8 65 3.8 S 19 24 10 13 1019.2 1019.1 0.0
25/07:00pm 19.5 16.9 12.0 62 4.2 S 17 20 9 11 1018.7 1018.6 0.0
25/06:30pm 20.3 17.6 11.8 58 4.7 S 17 24 9 13 1018.5 1018.4 0.0
25/06:00pm 21.0 17.5 10.2 50 5.8 S 19 26 10 14 1018.0 1017.9 0.0
25/05:30pm 22.1 18.7 9.3 44 6.9 S 17 20 9 11 1017.7 1017.6 0.0
25/05:00pm 23.2 19.3 9.6 42 7.4 SSW 20 26 11 14 1017.5 1017.4 0.0
25/04:30pm 24.3 19.8 7.0 33 9.0 SSW 20 26 11 14 1017.3 1017.2 0.0
25/04:00pm 25.3 19.4 6.0 29 9.9 SSW 26 32 14 17 1017.1 1017.0 0.0
25/03:30pm 25.5 19.7 6.2 29 10.0 SSW 26 33 14 18 1016.8 1016.7 0.0
25/03:00pm 25.4 19.0 5.1 27 10.3 SSW 28 35 15 19 1016.9 1016.8 0.0
25/02:30pm 25.8 20.4 6.4 29 10.1 SSW 24 35 13 19 1016.8 1016.7 0.0
25/02:00pm 26.2 23.1 7.3 30 10.0 S 13 24 7 13 1017.0 1016.9 0.0
25/01:30pm 25.6 21.4 5.8 28 10.2 S 17 26 9 14 1017.2 1017.1 0.0
25/01:00pm 26.0 21.3 6.1 28 10.3 SE 20 26 11 14 1017.6 1017.5 0.0
25/12:30pm 25.8 21.5 6.9 30 9.9 SE 19 28 10 15 1017.9 1017.8 0.0
25/12:00pm 24.9 21.1 7.5 33 9.2 SE 17 24 9 13 1018.2 1018.1 0.0
25/11:30am 24.5 20.3 7.6 34 8.9 SE 19 28 10 15 1018.6 1018.5 0.0
25/11:00am 23.6 19.7 8.8 39 7.9 SE 19 24 10 13 1018.9 1018.8 0.0
25/10:30am 22.5 19.7 10.0 45 6.8 SE 15 20 8 11 1019.3 1019.2 0.0
25/10:00am 21.2 18.4 10.1 49 6.0 SE 15 22 8 12 1019.5 1019.4 0.0
25/09:30am 19.7 16.5 10.1 54 5.2 SE 17 20 9 11 1019.6 1019.5 0.0
25/09:00am 18.2 15.5 10.3 60 4.2 SE 15 22 8 12 1019.4 1019.3 0.0
25/08:30am 16.8 13.7 10.4 66 3.4 SE 17 22 9 12 1019.1 1019.0 0.0
25/08:00am 15.1 12.4 10.3 73 2.5 SE 15 20 8 11 1019.0 1018.9 0.0
25/07:30am 13.8 11.5 10.4 80 1.8 SE 13 20 7 11 1018.8 1018.7 0.0
25/07:00am 13.3 10.6 10.3 82 1.6 SSE 15 19 8 10 1018.5 1018.4 0.0
25/06:30am 13.6 10.8 10.0 79 1.9 SSE 15 20 8 11 1018.3 1018.2 0.0
25/06:00am 13.5 10.2 9.7 78 1.9 SSE 17 20 9 11 1018.0 1017.9 0.0
25/05:30am 13.3 10.0 9.7 79 1.8 SSE 17 20 9 11 1017.8 1017.7 0.0
25/05:00am 13.5 10.8 10.3 81 1.7 SSE 15 20 8 11 1017.7 1017.6 0.0
25/04:30am 13.9 10.9 10.7 81 1.7 SSE 17 20 9 11 1017.8 1017.7 0.0
25/04:00am 14.4 11.7 11.6 83 1.5 SSE 17 22 9 12 1017.8 1017.7 0.0
25/03:30am 14.4 11.8 11.9 85 1.3 SSE 17 20 9 11 1017.9 1017.8 0.0
25/03:00am 14.6 12.0 11.9 84 1.5 SSE 17 24 9 13 1017.9 1017.8 0.0
25/02:30am 14.9 12.4 12.2 84 1.5 SSE 17 22 9 12 1017.9 1017.8 0.0
25/02:00am 15.2 12.7 12.3 83 1.6 SSE 17 22 9 12 1018.0 1017.9 0.0
25/01:30am 15.4 12.5 12.2 81 1.7 SSE 19 24 10 13 1018.2 1018.1 0.0
25/01:00am 15.9 13.1 12.5 80 1.9 SSE 19 24 10 13 1018.2 1018.1 0.0
25/12:30am 16.5 14.1 12.7 78 2.1 SSE 17 24 9 13 1018.2 1018.1 0.0
25/12:00am 17.0 13.9 12.3 74 2.6 SSE 20 28 11 15 1018.5 1018.4 0.0
 
Date/Time
WST
Temp
°C
App
Temp
°C
Dew
Point
Rel
Hum
%
Delta-T
°C
Wind Press
QNH
hPa
Press
MSL
hPa
Rain
since 9 am
mm
Dir
 
Spd
km/h
Gust
km/h
Spd
kts
Gust
kts
24/11:30pm 17.6 14.3 12.7 73 2.7 SSE 22 33 12 18 1018.6 1018.5 0.0
24/11:00pm 17.7 15.1 13.8 78 2.2 SSE 20 26 11 14 1018.7 1018.6 0.0
24/10:30pm 17.9 15.9 14.0 78 2.2 SSE 17 22 9 12 1018.8 1018.7 0.0
24/10:00pm 17.3 15.5 13.4 78 2.2 S 15 20 8 11 1018.7 1018.6 0.0
24/09:30pm 17.6 15.2 12.7 73 2.7 S 17 20 9 11 1018.6 1018.5 0.0
24/09:00pm 17.9 15.3 12.1 69 3.2 S 17 20 9 11 1018.4 1018.3 0.0
24/08:30pm 18.2 15.1 11.5 65 3.7 S 19 22 10 12 1018.3 1018.2 0.0
24/08:00pm 18.4 15.4 11.9 66 3.6 S 19 24 10 13 1018.1 1018.0 0.0
24/07:30pm 18.8 15.8 11.9 64 3.8 SSW 19 24 10 13 1017.8 1017.7 0.0
24/07:00pm 19.1 15.6 10.9 59 4.4 SSW 20 26 11 14 1017.5 1017.4 0.0
24/06:30pm 18.7 14.7 8.1 50 5.4 SSW 19 20 10 11 1017.3 1017.2 0.0
24/06:00pm 19.2 15.9 9.4 53 5.2 SSW 17 19 9 10 1017.0 1016.9 0.0
24/05:30pm 20.5 17.0 7.2 42 6.8 SW 15 17 8 9 1016.8 1016.7 0.0
24/05:00pm 21.9 17.5 6.6 37 7.8 SSW 19 24 10 13 1016.7 1016.6 0.0
24/04:30pm 22.8 18.4 6.6 35 8.3 SSW 19 26 10 14 1016.6 1016.5 0.0
24/04:00pm 23.2 18.2 6.5 34 8.6 SSW 22 30 12 16 1016.5 1016.4 0.0
24/03:30pm 23.7 18.4 6.9 34 8.7 SSW 24 32 13 17 1016.5 1016.4 0.0
24/03:00pm 23.9 19.5 7.5 35 8.6 SSW 20 28 11 15 1016.4 1016.3 0.0
24/02:30pm 24.7 22.3 8.6 36 8.7 SSE 11 20 6 11 1016.5 1016.4 0.0
24/02:00pm 24.6 21.2 5.9 30 9.6 SE 13 24 7 13 1016.7 1016.6 0.0
24/01:30pm 24.3 20.7 6.6 32 9.2 SE 15 30 8 16 1017.0 1016.9 0.0
24/01:00pm 24.2 19.8 6.5 32 9.1 SE 19 26 10 14 1017.6 1017.5 0.0
24/12:30pm 23.9 19.3 6.7 33 8.9 SE 20 28 11 15 1018.0 1017.9 0.0
24/12:00pm 23.5 19.4 8.0 37 8.2 ESE 19 28 10 15 1018.4 1018.3 0.0
24/11:30am 23.5 19.8 9.5 41 7.6 ESE 19 26 10 14 1018.8 1018.7 0.0
24/11:00am 22.5 18.6 9.6 44 7.0 ESE 20 28 11 15 1019.1 1019.0 0.0
24/10:30am 21.9 18.1 9.8 46 6.5 ESE 20 28 11 15 1019.4 1019.3 0.0
24/10:00am 21.0 17.6 10.5 51 5.7 ESE 19 28 10 15 1019.5 1019.4 0.0
24/09:30am 19.7 16.3 11.2 58 4.7 ESE 20 26 11 14 1019.5 1019.4 0.0
24/09:00am 18.9 15.9 12.4 66 3.6 ESE 20 26 11 14 1019.3 1019.2 0.0
24/08:30am 17.6 15.2 12.7 73 2.7 ESE 17 22 9 12 1019.1 1019.0 0.0
24/08:00am 16.1 13.7 12.7 80 1.9 SE 17 22 9 12 1018.9 1018.8 0.0
24/07:30am 14.3 12.1 12.2 87 1.1 SE 15 20 8 11 1018.9 1018.8 0.0
24/07:00am 12.6 10.4 10.7 88 1.0 SSE 13 17 7 9 1018.7 1018.6 0.0
24/06:30am 12.9 11.0 10.6 86 1.2 SSE 11 13 6 7 1018.4 1018.3 0.0
24/06:00am 13.9 11.8 11.2 84 1.4 SE 13 15 7 8 1018.3 1018.2 0.0
24/05:30am 14.3 11.9 11.3 82 1.6 SE 15 20 8 11 1018.1 1018.0 0.0
24/05:00am 14.2 11.8 11.4 83 1.5 SE 15 20 8 11 1018.0 1017.9 0.0
24/04:30am 13.9 12.1 10.9 82 1.6 SE 11 15 6 8 1018.1 1018.0 0.0
24/04:00am 14.1 12.0 11.1 82 1.6 SE 13 15 7 8 1018.4 1018.3 0.0
24/03:30am 14.3 12.0 11.6 84 1.4 SE 15 19 8 10 1018.3 1018.2 0.0
24/03:00am 14.0 12.1 11.7 86 1.2 SE 13 17 7 9 1018.4 1018.3 0.0
24/02:30am 14.3 12.3 11.5 83 1.5 SSE 13 17 7 9 1018.3 1018.2 0.0
24/02:00am 15.0 12.4 12.0 82 1.6 SSE 17 20 9 11 1018.2 1018.1 0.0
24/01:30am 14.8 12.5 11.6 81 1.7 SE 15 17 8 9 1018.4 1018.3 0.0
24/01:00am 15.4 13.0 11.4 77 2.1 SE 15 19 8 10 1018.4 1018.3 0.0
24/12:30am 16.5 13.8 11.6 73 2.7 SSE 17 24 9 13 1018.5 1018.4 0.0
24/12:00am 17.0 13.9 11.7 71 2.9 SSE 19 26 10 14 1018.5 1018.4 0.0
 
Date/Time
WST
Temp
°C
App
Temp
°C
Dew
Point
Rel
Hum
%
Delta-T
°C
Wind Press
QNH
hPa
Press
MSL
hPa
Rain
since 9 am
mm
Dir
 
Spd
km/h
Gust
km/h
Spd
kts
Gust
kts
23/11:30pm 17.2 14.3 12.3 73 2.7 SSE 19 26 10 14 1018.6 1018.5 0.0
23/11:00pm 17.4 14.7 12.9 75 2.5 S 19 24 10 13 1018.7 1018.6 0.0
23/10:30pm 17.6 15.0 13.1 75 2.5 SSE 19 24 10 13 1018.8 1018.7 0.0
23/10:00pm 18.1 15.6 13.4 74 2.7 SSE 19 26 10 14 1018.8 1018.7 0.0
23/09:30pm 18.5 16.1 13.8 74 2.7 S 19 28 10 15 1018.8 1018.7 0.0
23/09:00pm 18.7 16.2 14.0 74 2.7 S 20 26 11 14 1018.8 1018.7 0.0
23/08:30pm 18.9 16.6 14.0 73 2.8 S 19 28 10 15 1018.7 1018.6 0.0
23/08:00pm 19.1 16.4 13.5 70 3.2 S 20 28 11 15 1018.6 1018.5 0.0
23/07:30pm 19.2 16.7 13.4 69 3.3 S 19 26 10 14 1018.4 1018.3 0.0
23/07:00pm 19.6 16.8 13.1 66 3.7 S 20 28 11 15 1018.1 1018.0 0.0
23/06:30pm 19.8 17.1 13.0 65 3.9 S 19 28 10 15 1017.9 1017.8 0.0
23/06:00pm 20.1 17.6 12.3 61 4.4 S 17 24 9 13 1017.7 1017.6 0.0
23/05:30pm 21.0 18.1 12.9 60 4.6 SSW 20 28 11 15 1017.5 1017.4 0.0
23/05:00pm 21.9 18.7 13.0 57 5.1 SSW 22 30 12 16 1017.3 1017.2 0.0
23/04:30pm 22.8 19.8 12.4 52 5.9 SSW 20 30 11 16 1017.1 1017.0 0.0
23/04:00pm 23.3 19.6 11.4 47 6.7 S 22 32 12 17 1016.9 1016.8 0.0
23/03:30pm 23.2 19.0 12.5 51 6.1 SW 26 35 14 19 1017.0 1016.9 0.0
23/03:00pm 23.7 19.4 12.0 48 6.6 SSW 26 35 14 19 1017.0 1016.9 0.0
23/02:30pm 24.3 21.1 11.3 44 7.3 S 19 30 10 16 1017.1 1017.0 0.0
23/02:00pm 24.2 20.7 10.8 43 7.5 SSE 20 32 11 17 1017.3 1017.2 0.0

Other Formats:

Comma delimited format used in spreadsheet applications
http://www.bom.gov.au/fwo/IDW60801/IDW60801.95402.axf

JavaScript Object Notation format (JSON) in row-major order
http://www.bom.gov.au/fwo/IDW60801/IDW60801.95402.json